Time;durP1;ratioP1;P1;durP2;ratioP2;P2;SDS_P1;SDS_P2;PMS_P1;PMS_P2;Temp;Humidity;BMP_temperature;BMP_pressure;BME280_temperature;BME280_humidity;BME280_pressure;Samples;Min_cycle;Max_cycle;Signal;HPM_P1;HPM_P2
2023/11/11 00:01:38;;;;;;;1.25;0.60;;;;;;;5.01;100.00;96797.44;15263609;19;20376;-47
2023/11/11 00:07:02;;;;;;;2.58;0.85;;;;;;;4.95;100.00;96798.94;15262687;19;20471;-47
2023/11/11 00:12:27;;;;;;;4.53;0.80;;;;;;;4.92;100.00;96794.78;15272023;19;20036;-48
2023/11/11 00:17:54;;;;;;;4.53;1.05;;;;;;;4.86;100.00;96789.28;15281076;19;20011;-49
2023/11/11 00:23:20;;;;;;;1.85;0.80;;;;;;;4.79;100.00;96786.44;15276435;19;20048;-47
2023/11/11 00:28:45;;;;;;;1.48;0.73;;;;;;;4.76;100.00;96781.44;15281396;19;20014;-48
2023/11/11 00:34:13;;;;;;;1.00;0.60;;;;;;;4.72;100.00;96782.75;15274390;19;20380;-51
2023/11/11 00:39:37;;;;;;;1.80;0.65;;;;;;;4.65;100.00;96787.06;15278380;19;20007;-49
2023/11/11 00:45:02;;;;;;;1.83;0.80;;;;;;;4.54;100.00;96783.72;15273147;19;20029;-48
2023/11/11 00:50:30;;;;;;;1.55;0.70;;;;;;;4.44;100.00;96772.38;15272648;19;20106;-47
2023/11/11 00:55:55;;;;;;;1.95;0.90;;;;;;;4.35;100.00;96776.84;15272622;19;20022;-46
2023/11/11 01:01:19;;;;;;;3.22;0.80;;;;;;;4.27;100.00;96772.34;15276878;19;20019;-47
2023/11/11 01:06:47;;;;;;;1.52;0.80;;;;;;;4.26;100.00;96776.00;15271484;19;20052;-51
2023/11/11 01:12:12;;;;;;;1.67;0.80;;;;;;;4.27;100.00;96769.69;15278241;19;20416;-47
2023/11/11 01:17:37;;;;;;;2.45;0.90;;;;;;;4.26;100.00;96772.50;15275726;19;20014;-49
2023/11/11 01:23:05;;;;;;;1.83;0.90;;;;;;;4.23;100.00;96765.66;15262576;19;20018;-47
2023/11/11 01:28:30;;;;;;;1.42;0.80;;;;;;;4.16;100.00;96754.81;15272711;19;20006;-47
2023/11/11 01:34:01;;;;;;;2.75;0.98;;;;;;;4.14;100.00;96761.31;15270722;19;20044;-46
2023/11/11 01:39:31;;;;;;;2.88;1.00;;;;;;;4.10;100.00;96757.28;15274212;19;20082;-52
2023/11/11 01:44:56;;;;;;;1.25;0.75;;;;;;;4.06;100.00;96750.63;15272988;19;20018;-47
2023/11/11 01:50:21;;;;;;;1.10;0.80;;;;;;;4.00;100.00;96742.28;15276305;19;20040;-49
2023/11/11 01:55:49;;;;;;;1.33;0.90;;;;;;;3.94;100.00;96740.25;15264130;19;20055;-49
2023/11/11 02:01:13;;;;;;;1.75;0.90;;;;;;;3.90;100.00;96740.72;15269441;19;20506;-47
2023/11/11 02:06:39;;;;;;;1.90;1.00;;;;;;;3.84;100.00;96735.06;15267804;19;20802;-50
2023/11/11 02:12:07;;;;;;;2.90;1.05;;;;;;;3.81;100.00;96719.38;15273695;19;20014;-48
2023/11/11 02:17:32;;;;;;;2.25;1.15;;;;;;;3.80;100.00;96716.91;15273989;19;20018;-49
2023/11/11 02:22:58;;;;;;;3.30;0.95;;;;;;;3.80;100.00;96706.25;15268876;19;20018;-46
2023/11/11 02:28:25;;;;;;;3.05;1.00;;;;;;;3.74;100.00;96706.88;15264316;19;20022;-47
2023/11/11 02:33:50;;;;;;;2.25;1.02;;;;;;;3.66;100.00;96710.34;15269566;19;20376;-46
2023/11/11 02:39:16;;;;;;;2.88;1.10;;;;;;;3.61;100.00;96717.97;15273212;19;20654;-48
2023/11/11 02:44:50;;;;;;;1.77;1.15;;;;;;;3.57;100.00;96714.81;15268083;19;20014;-49
2023/11/11 02:50:14;;;;;;;2.80;1.10;;;;;;;3.54;100.00;96707.13;15271369;19;20494;-48
2023/11/11 02:55:39;;;;;;;2.25;1.10;;;;;;;3.52;100.00;96706.44;15267660;19;20738;-48
2023/11/11 03:01:06;;;;;;;2.33;1.00;;;;;;;3.47;100.00;96706.94;15263236;19;20007;-48
2023/11/11 03:06:32;;;;;;;2.15;1.08;;;;;;;3.42;100.00;96703.91;15264483;19;20024;-48
2023/11/11 03:11:57;;;;;;;2.65;1.10;;;;;;;3.42;100.00;96697.75;15269121;19;20027;-48
2023/11/11 03:17:25;;;;;;;3.75;1.20;;;;;;;3.44;100.00;96690.44;15266017;19;20777;-46
2023/11/11 03:22:49;;;;;;;2.92;1.30;;;;;;;3.52;100.00;96688.66;15265254;19;20544;-47
2023/11/11 03:28:14;;;;;;;2.40;1.00;;;;;;;3.61;100.00;96686.03;15267290;19;20011;-50
2023/11/11 03:33:41;;;;;;;3.25;1.10;;;;;;;3.59;100.00;96680.84;15251970;19;20021;-49
2023/11/11 03:39:06;;;;;;;3.35;1.08;;;;;;;3.58;100.00;96684.53;15259612;19;20040;-48
2023/11/11 03:44:31;;;;;;;4.70;1.02;;;;;;;3.59;100.00;96680.03;15252285;19;20758;-47
2023/11/11 03:49:59;;;;;;;3.05;1.10;;;;;;;3.60;100.00;96687.84;15255869;19;20025;-48
2023/11/11 03:55:25;;;;;;;3.50;1.10;;;;;;;3.58;100.00;96686.34;15254098;19;20422;-46
2023/11/11 04:00:50;;;;;;;2.75;1.00;;;;;;;3.59;100.00;96685.34;14747327;19;10001648;-50
2023/11/11 04:06:18;;;;;;;1.85;0.80;;;;;;;3.65;100.00;96677.56;15251231;19;20022;-46
2023/11/11 04:11:44;;;;;;;4.32;1.08;;;;;;;3.63;100.00;96679.53;15258027;19;20929;-48
2023/11/11 04:17:09;;;;;;;2.08;0.90;;;;;;;3.66;100.00;96683.69;15255619;19;20330;-48
2023/11/11 04:22:37;;;;;;;3.03;1.05;;;;;;;3.68;100.00;96689.72;15257643;19;20018;-46
2023/11/11 04:28:03;;;;;;;4.28;1.08;;;;;;;3.74;100.00;96685.56;15259910;19;20322;-45
2023/11/11 04:33:28;;;;;;;3.40;1.20;;;;;;;3.79;100.00;96683.25;15257682;19;20015;-48
2023/11/11 04:39:02;;;;;;;1.83;0.95;;;;;;;3.79;100.00;96685.94;15243997;19;20018;-46
2023/11/11 04:44:27;;;;;;;2.58;1.00;;;;;;;3.80;100.00;96682.28;15251534;19;20014;-51
2023/11/11 04:49:53;;;;;;;2.97;1.05;;;;;;;3.83;100.00;96681.94;15257278;19;20632;-47
2023/11/11 04:55:20;;;;;;;1.77;0.90;;;;;;;3.89;100.00;96683.09;15255610;19;20472;-50
2023/11/11 05:00:45;;;;;;;2.28;1.00;;;;;;;3.89;100.00;96689.28;15267711;19;20623;-50
2023/11/11 05:06:09;;;;;;;3.17;1.23;;;;;;;3.90;100.00;96701.63;15265096;19;20037;-46
2023/11/11 05:11:37;;;;;;;5.20;1.38;;;;;;;3.94;100.00;96705.59;15264276;19;20035;-47
2023/11/11 05:17:07;;;;;;;4.57;1.33;;;;;;;3.97;100.00;96704.47;15264194;19;20106;-46
2023/11/11 05:22:32;;;;;;;1.87;0.97;;;;;;;3.99;100.00;96707.81;15265529;19;20028;-47
2023/11/11 05:28:00;;;;;;;4.30;1.00;;;;;;;3.99;100.00;96705.97;15267625;19;20275;-49
2023/11/11 05:33:25;;;;;;;3.67;1.02;;;;;;;3.99;100.00;96711.28;15265999;19;20011;-48
2023/11/11 05:38:56;;;;;;;1.52;0.90;;;;;;;4.05;100.00;96709.00;15260757;19;20481;-45
2023/11/11 05:44:24;;;;;;;2.47;1.10;;;;;;;4.12;100.00;96712.66;15257799;19;20010;-47
2023/11/11 05:49:49;;;;;;;3.63;1.30;;;;;;;4.17;100.00;96721.00;15267507;19;20021;-46
2023/11/11 05:55:14;;;;;;;3.58;1.00;;;;;;;4.21;100.00;96718.84;15260791;19;20098;-49
2023/11/11 06:00:42;;;;;;;5.63;1.17;;;;;;;4.25;100.00;96731.69;15263580;19;20082;-46
2023/11/11 06:06:08;;;;;;;2.33;1.00;;;;;;;4.25;100.00;96741.50;15260482;19;20011;-45
2023/11/11 06:11:32;;;;;;;3.25;1.10;;;;;;;4.21;100.00;96735.66;15260953;19;20390;-47
2023/11/11 06:16:59;;;;;;;3.25;1.10;;;;;;;4.21;100.00;96750.84;15252785;19;20026;-46
2023/11/11 06:22:24;;;;;;;3.65;1.00;;;;;;;4.23;100.00;96759.50;15261126;19;20046;-47
2023/11/11 06:27:48;;;;;;;3.67;1.05;;;;;;;4.21;100.00;96764.97;15263162;19;20010;-46
2023/11/11 06:33:16;;;;;;;1.70;0.98;;;;;;;4.26;100.00;96770.69;15262510;19;20014;-51
2023/11/11 06:38:47;;;;;;;1.75;0.90;;;;;;;4.30;100.00;96777.34;15261769;19;20018;-49
2023/11/11 06:44:12;;;;;;;1.65;1.00;;;;;;;4.35;100.00;96797.34;15260544;19;20680;-48
2023/11/11 06:49:39;;;;;;;2.45;1.20;;;;;;;4.40;100.00;96803.03;15259738;19;20036;-46
2023/11/11 06:55:04;;;;;;;2.22;1.10;;;;;;;4.44;100.00;96807.88;15258319;19;20025;-49
2023/11/11 07:00:31;;;;;;;2.67;1.38;;;;;;;4.50;100.00;96811.72;15258856;19;20011;-50
2023/11/11 07:05:59;;;;;;;3.67;1.40;;;;;;;4.58;100.00;96822.41;15256346;19;20017;-54
2023/11/11 07:11:26;;;;;;;2.30;1.52;;;;;;;4.63;100.00;96828.09;15263446;19;20018;-49
2023/11/11 07:16:51;;;;;;;3.47;1.92;;;;;;;4.67;100.00;96833.09;15257594;19;20021;-48
2023/11/11 07:22:20;;;;;;;2.92;2.08;;;;;;;4.66;100.00;96844.75;15249679;19;20101;-48
2023/11/11 07:27:45;;;;;;;2.67;1.92;;;;;;;4.63;100.00;96852.09;15249792;19;20014;-47
2023/11/11 07:33:09;;;;;;;2.47;1.60;;;;;;;4.65;100.00;96869.75;15257779;19;21183;-46
2023/11/11 07:38:43;;;;;;;2.80;1.40;;;;;;;4.66;100.00;96882.09;15255948;19;20018;-51
2023/11/11 07:44:09;;;;;;;3.60;1.60;;;;;;;4.65;100.00;96897.28;15249294;19;20636;-52
2023/11/11 07:49:33;;;;;;;4.65;1.75;;;;;;;4.67;100.00;96905.09;15256170;19;20494;-50
2023/11/11 07:55:01;;;;;;;3.15;1.60;;;;;;;4.72;100.00;96924.16;15246003;19;20755;-49
2023/11/11 08:00:27;;;;;;;5.30;1.88;;;;;;;4.69;100.00;96944.00;15260815;19;20975;-46
2023/11/11 08:05:53;;;;;;;5.43;2.10;;;;;;;4.69;100.00;96941.31;15257582;19;20010;-49
2023/11/11 08:11:20;;;;;;;4.07;1.65;;;;;;;4.68;100.00;96950.31;15261498;19;20046;-52
2023/11/11 08:16:45;;;;;;;1.30;0.93;;;;;;;4.66;100.00;96970.97;15256332;19;20476;-50
2023/11/11 08:22:10;;;;;;;2.72;0.90;;;;;;;4.62;100.00;96983.81;15259587;19;20020;-49
2023/11/11 08:27:37;;;;;;;1.95;1.17;;;;;;;4.53;100.00;96994.56;15261020;19;20346;-51
2023/11/11 08:33:02;;;;;;;1.40;1.02;;;;;;;4.44;100.00;96991.00;15262136;19;20025;-46
2023/11/11 08:38:28;;;;;;;1.00;0.80;;;;;;;4.37;100.00;97000.66;15273312;19;20017;-54
2023/11/11 08:43:56;;;;;;;1.42;0.43;;;;;;;4.36;100.00;97014.97;15270413;19;20520;-47
2023/11/11 08:49:20;;;;;;;0.20;0.20;;;;;;;4.30;100.00;97021.78;15167579;19;2004148;-49
2023/11/11 08:54:45;;;;;;;0.20;0.20;;;;;;;4.25;100.00;97024.06;15265521;19;20018;-52
2023/11/11 09:00:15;;;;;;;0.20;0.20;;;;;;;4.24;100.00;97041.03;15273552;19;20015;-51
2023/11/11 09:05:41;;;;;;;0.55;0.25;;;;;;;4.25;100.00;97056.91;15272748;19;20028;-49
2023/11/11 09:11:06;;;;;;;0.17;0.10;;;;;;;4.28;100.00;97056.59;15271517;19;20533;-50
2023/11/11 09:16:34;;;;;;;0.30;0.30;;;;;;;4.32;100.00;97065.94;15266491;19;20097;-47
2023/11/11 09:22:00;;;;;;;0.45;0.40;;;;;;;4.37;100.00;97077.97;15272435;19;20078;-49
2023/11/11 09:27:28;;;;;;;0.45;0.43;;;;;;;4.43;100.00;97088.00;15266504;19;20025;-49
2023/11/11 09:32:58;;;;;;;2.00;0.80;;;;;;;4.47;100.00;97084.03;15275412;19;20018;-48
2023/11/11 09:38:29;;;;;;;0.50;0.50;;;;;;;4.51;100.00;97088.09;15280662;19;20371;-50
2023/11/11 09:43:54;;;;;;;1.15;0.80;;;;;;;4.55;100.00;97097.44;15260189;19;20040;-49
2023/11/11 09:49:22;;;;;;;1.13;1.02;;;;;;;4.60;100.00;97104.97;15262214;19;20090;-50
2023/11/11 09:54:48;;;;;;;1.80;1.00;;;;;;;4.68;100.00;97128.19;15258829;19;20019;-51
2023/11/11 10:00:16;;;;;;;1.70;1.13;;;;;;;4.72;100.00;97122.38;15259163;19;20040;-49
2023/11/11 10:05:44;;;;;;;1.55;1.10;;;;;;;4.80;100.00;97124.28;15262860;19;20578;-50
2023/11/11 10:11:10;;;;;;;3.38;1.60;;;;;;;4.90;100.00;97135.66;15266999;19;20010;-48
2023/11/11 10:16:37;;;;;;;1.83;1.30;;;;;;;4.98;100.00;97153.56;15256336;19;20019;-49
2023/11/11 10:22:08;;;;;;;2.50;1.48;;;;;;;5.10;100.00;97151.50;15266970;19;20007;-48
2023/11/11 10:27:34;;;;;;;2.53;1.60;;;;;;;5.21;100.00;97145.03;15266643;19;20006;-52
2023/11/11 10:33:04;;;;;;;2.28;1.83;;;;;;;5.30;100.00;97168.09;15258437;19;20023;-50
2023/11/11 10:38:31;;;;;;;4.53;1.60;;;;;;;5.40;100.00;97173.34;15261138;19;20053;-48
2023/11/11 10:43:57;;;;;;;1.50;1.35;;;;;;;5.48;100.00;97153.84;15261610;19;20014;-50
2023/11/11 10:49:23;;;;;;;2.33;1.50;;;;;;;5.55;100.00;97161.06;15262494;19;20014;-50
2023/11/11 10:54:56;;;;;;;1.25;1.15;;;;;;;5.61;100.00;97156.91;15265418;19;20090;-51
2023/11/11 11:00:24;;;;;;;3.88;1.48;;;;;;;5.70;100.00;97149.75;15264509;19;20029;-50
2023/11/11 11:05:55;;;;;;;2.30;1.40;;;;;;;5.74;100.00;97148.41;15253437;19;20022;-53
2023/11/11 11:11:30;;;;;;;2.63;1.45;;;;;;;5.80;100.00;97146.94;15258545;19;20074;-50
2023/11/11 11:16:57;;;;;;;3.70;1.30;;;;;;;5.89;100.00;97151.28;15254860;19;20097;-48
2023/11/11 11:22:26;;;;;;;2.05;1.38;;;;;;;5.94;100.00;97156.19;15260329;19;20037;-51
2023/11/11 11:27:53;;;;;;;1.75;1.25;;;;;;;5.98;100.00;97160.19;15257131;19;20358;-50
2023/11/11 11:33:19;;;;;;;2.33;1.20;;;;;;;6.01;100.00;97146.53;15254845;19;20018;-49
2023/11/11 11:38:51;;;;;;;1.60;1.00;;;;;;;6.10;100.00;97158.91;15251148;19;20022;-48
2023/11/11 11:44:22;;;;;;;1.40;0.80;;;;;;;6.19;100.00;97166.94;15261057;19;20515;-53
2023/11/11 11:49:49;;;;;;;1.77;0.70;;;;;;;6.24;100.00;97167.28;15261799;19;20480;-52
2023/11/11 11:55:16;;;;;;;3.15;0.73;;;;;;;6.23;100.00;97174.50;15255372;19;20081;-54
2023/11/11 12:00:47;;;;;;;0.60;0.60;;;;;;;6.25;100.00;97171.63;15259980;19;20025;-54
2023/11/11 12:06:13;;;;;;;1.57;0.70;;;;;;;6.26;100.00;97157.28;15255115;19;20078;-51
2023/11/11 12:11:39;;;;;;;2.75;0.60;;;;;;;6.29;100.00;97154.28;15255249;19;20023;-54
2023/11/11 12:17:07;;;;;;;1.75;0.60;;;;;;;6.34;100.00;97159.94;15255224;19;20476;-54
2023/11/11 12:22:32;;;;;;;1.70;0.50;;;;;;;6.37;100.00;97159.63;15260035;19;20444;-50
2023/11/11 12:27:57;;;;;;;1.20;0.68;;;;;;;6.36;100.00;97162.44;15257686;19;20618;-50
2023/11/11 12:33:24;;;;;;;2.25;0.60;;;;;;;6.35;100.00;97160.78;15258662;19;20755;-50
2023/11/11 12:38:56;;;;;;;1.23;0.63;;;;;;;6.43;100.00;97155.44;15253186;19;20034;-53
2023/11/11 12:44:23;;;;;;;1.03;0.50;;;;;;;6.52;100.00;97173.16;15251376;19;20021;-49
2023/11/11 12:50:04;;;;;;;1.92;0.57;;;;;;;6.59;100.00;97184.03;15258203;19;20346;-52
2023/11/11 12:55:29;;;;;;;1.10;0.50;;;;;;;6.61;100.00;97174.84;15252567;19;20010;-51
2023/11/11 13:01:01;;;;;;;2.58;0.70;;;;;;;6.64;100.00;97168.34;15257691;19;20053;-54
2023/11/11 13:06:32;;;;;;;1.70;0.60;;;;;;;6.68;100.00;97161.63;15254315;19;20022;-51
2023/11/11 13:11:58;;;;;;;2.92;0.60;;;;;;;6.74;100.00;97179.72;15256492;19;20014;-53
2023/11/11 13:17:29;;;;;;;1.15;0.47;;;;;;;6.75;100.00;97165.31;15242942;19;20373;-48
2023/11/11 13:22:56;;;;;;;1.67;0.57;;;;;;;6.77;100.00;97168.63;15269955;19;20090;-54
2023/11/11 13:28:22;;;;;;;1.60;0.50;;;;;;;6.79;100.00;97166.63;15269236;19;21138;-50
2023/11/11 13:33:47;;;;;;;1.98;0.50;;;;;;;6.74;100.00;97160.97;15015252;19;5000922;-54
2023/11/11 13:39:23;;;;;;;1.95;0.57;;;;;;;6.62;100.00;97173.00;15263887;19;20021;-49
2023/11/11 13:44:50;;;;;;;1.67;0.50;;;;;;;6.57;100.00;97165.50;15274259;19;20025;-53
2023/11/11 13:50:16;;;;;;;1.75;0.52;;;;;;;6.55;100.00;97166.63;15273024;19;20011;-55
2023/11/11 13:55:44;;;;;;;3.28;0.60;;;;;;;6.46;100.00;97185.38;15274246;19;20019;-50
2023/11/11 14:01:12;;;;;;;0.82;0.40;;;;;;;6.08;100.00;97202.84;15279447;19;20010;-51
2023/11/11 14:06:37;;;;;;;1.08;0.32;;;;;;;5.44;100.00;97220.09;15270646;19;20483;-49
2023/11/11 14:12:04;;;;;;;0.68;0.47;;;;;;;4.99;100.00;97205.13;15270508;19;20018;-51
2023/11/11 14:17:33;;;;;;;0.90;0.50;;;;;;;4.78;100.00;97216.97;15273067;19;20011;-51
2023/11/11 14:22:58;;;;;;;1.08;0.60;;;;;;;4.76;100.00;97243.81;15273426;19;20279;-52
2023/11/11 14:28:29;;;;;;;0.80;0.68;;;;;;;4.76;100.00;97264.34;15269369;19;20015;-48
2023/11/11 14:33:53;;;;;;;2.20;0.95;;;;;;;4.75;100.00;97302.69;15273185;19;20017;-49
2023/11/11 14:39:25;;;;;;;1.73;0.55;;;;;;;4.68;100.00;97291.78;15264862;19;20014;-50
2023/11/11 14:44:55;;;;;;;1.48;0.60;;;;;;;4.62;100.00;97279.88;15273040;19;20024;-54
2023/11/11 14:50:21;;;;;;;1.85;0.60;;;;;;;4.67;100.00;97291.91;15272186;19;20025;-54
2023/11/11 14:55:47;;;;;;;0.55;0.50;;;;;;;4.80;100.00;97311.06;15270417;19;20368;-51
2023/11/11 15:01:15;;;;;;;1.00;0.60;;;;;;;4.91;100.00;97326.84;15269811;19;20014;-55
2023/11/11 15:06:40;;;;;;;0.98;0.50;;;;;;;4.99;100.00;97344.75;15268283;19;20021;-53
2023/11/11 15:12:05;;;;;;;1.25;0.50;;;;;;;4.97;100.00;97353.91;15269901;19;20024;-49
2023/11/11 15:17:32;;;;;;;0.63;0.60;;;;;;;4.81;100.00;97306.56;15270628;19;20014;-50
2023/11/11 15:23:03;;;;;;;1.67;0.80;;;;;;;4.71;100.00;97317.31;15265825;19;20038;-49
2023/11/11 15:28:28;;;;;;;1.45;0.80;;;;;;;4.62;100.00;97330.56;15244851;19;20035;-50
2023/11/11 15:33:56;;;;;;;1.98;1.00;;;;;;;4.51;100.00;97354.78;15269013;19;20482;-48
2023/11/11 15:39:27;;;;;;;2.22;1.00;;;;;;;4.42;100.00;97360.97;15266391;19;20484;-50
2023/11/11 15:44:53;;;;;;;1.40;1.10;;;;;;;4.37;100.00;97374.78;15266747;19;20016;-52
2023/11/11 15:50:21;;;;;;;2.00;1.10;;;;;;;4.34;100.00;97390.22;15269124;19;20117;-51
2023/11/11 15:55:47;;;;;;;1.27;0.88;;;;;;;4.27;100.00;97401.50;15260671;19;20018;-51
2023/11/11 16:01:14;;;;;;;2.00;1.20;;;;;;;4.23;100.00;97416.09;15269136;19;20015;-52
2023/11/11 16:06:42;;;;;;;2.72;1.00;;;;;;;4.21;100.00;97422.56;15263527;19;20051;-51
2023/11/11 16:12:07;;;;;;;1.10;1.00;;;;;;;4.22;100.00;97433.06;15267784;19;20019;-53
2023/11/11 16:17:32;;;;;;;0.98;0.88;;;;;;;4.23;100.00;97432.09;15012381;19;5001915;-53
2023/11/11 16:22:59;;;;;;;1.67;1.00;;;;;;;4.26;100.00;97444.28;15268125;19;20020;-51
2023/11/11 16:28:25;;;;;;;3.17;1.10;;;;;;;4.24;100.00;97449.78;15259324;19;20022;-51
2023/11/11 16:33:49;;;;;;;1.63;0.85;;;;;;;4.22;100.00;97438.41;15266653;19;20018;-54
2023/11/11 16:39:23;;;;;;;2.33;0.80;;;;;;;4.19;100.00;97438.69;15261672;19;20014;-51
2023/11/11 16:44:48;;;;;;;2.17;1.10;;;;;;;4.15;100.00;97448.81;15266635;19;20014;-52
2023/11/11 16:50:16;;;;;;;4.53;1.10;;;;;;;4.08;100.00;97455.72;15266610;19;20330;-50
2023/11/11 16:55:43;;;;;;;2.42;0.80;;;;;;;4.05;100.00;97449.84;15272464;19;20022;-50
2023/11/11 17:01:09;;;;;;;1.73;1.00;;;;;;;4.07;100.00;97453.16;15277476;19;20032;-50
2023/11/11 17:06:37;;;;;;;3.92;0.82;;;;;;;4.05;100.00;97456.00;15274370;19;20708;-49
2023/11/11 17:12:05;;;;;;;2.25;1.02;;;;;;;4.05;100.00;97461.31;15281015;19;20039;-53
2023/11/11 17:17:30;;;;;;;2.65;0.90;;;;;;;3.98;100.00;97461.06;15279907;19;20039;-53
2023/11/11 17:22:54;;;;;;;1.70;1.05;;;;;;;3.88;100.00;97464.72;15278904;19;20014;-51
2023/11/11 17:28:21;;;;;;;1.90;1.10;;;;;;;3.82;100.00;97472.31;15276393;19;20036;-50
2023/11/11 17:33:46;;;;;;;1.70;1.20;;;;;;;3.83;100.00;97475.78;15273652;19;20561;-52
2023/11/11 17:39:21;;;;;;;2.00;1.10;;;;;;;3.84;100.00;97490.78;15273293;19;20399;-54
2023/11/11 17:44:50;;;;;;;2.45;1.17;;;;;;;3.85;100.00;97489.81;15276632;19;20044;-52
2023/11/11 17:50:15;;;;;;;1.52;0.85;;;;;;;3.83;100.00;97491.78;15276750;19;20014;-54
2023/11/11 17:55:40;;;;;;;2.42;1.05;;;;;;;3.85;100.00;97489.81;15275266;19;20010;-50
2023/11/11 18:01:09;;;;;;;2.15;0.88;;;;;;;3.84;100.00;97491.66;15277449;19;20017;-52
2023/11/11 18:06:34;;;;;;;2.42;1.13;;;;;;;3.80;100.00;97497.41;15263393;19;20010;-52
2023/11/11 18:11:58;;;;;;;2.78;1.00;;;;;;;3.77;100.00;97493.19;15254837;19;20045;-53
2023/11/11 18:17:26;;;;;;;1.73;0.85;;;;;;;3.76;100.00;97496.00;15269593;19;20014;-51
2023/11/11 18:22:52;;;;;;;2.92;1.33;;;;;;;3.77;100.00;97506.50;15276202;19;20024;-52
2023/11/11 18:28:17;;;;;;;1.48;1.00;;;;;;;3.76;100.00;97499.53;15269660;19;20081;-49
2023/11/11 18:33:44;;;;;;;3.78;1.80;;;;;;;3.73;100.00;97501.59;15276017;19;20023;-51
2023/11/11 18:39:16;;;;;;;3.38;2.00;;;;;;;3.67;100.00;97501.19;15266566;19;20596;-49
2023/11/11 18:44:41;;;;;;;4.47;2.22;;;;;;;3.65;100.00;97511.16;15272723;19;20405;-53
2023/11/11 18:50:08;;;;;;;3.42;2.10;;;;;;;3.65;100.00;97508.47;15273250;19;20677;-53
2023/11/11 18:55:43;;;;;;;3.47;1.83;;;;;;;3.64;100.00;97517.44;15272725;19;20014;-53
2023/11/11 19:01:08;;;;;;;2.08;1.80;;;;;;;3.65;100.00;97520.94;15272367;19;20011;-52
2023/11/11 19:06:36;;;;;;;2.67;1.90;;;;;;;3.67;100.00;97522.50;15269253;19;20032;-51
2023/11/11 19:12:00;;;;;;;3.67;2.38;;;;;;;3.66;100.00;97528.81;15262852;19;20014;-51
2023/11/11 19:17:25;;;;;;;3.20;2.10;;;;;;;3.68;100.00;97531.31;15261104;19;20023;-52
2023/11/11 19:22:55;;;;;;;2.88;1.80;;;;;;;3.71;100.00;97533.72;15270084;19;20018;-52
2023/11/11 19:28:20;;;;;;;2.65;1.73;;;;;;;3.77;100.00;97548.31;15263590;19;20021;-51
2023/11/11 19:33:44;;;;;;;3.45;2.30;;;;;;;3.80;100.00;97554.19;15268571;19;20017;-55
2023/11/11 19:39:11;;;;;;;4.10;2.15;;;;;;;3.83;100.00;97547.72;15264192;19;20018;-54
2023/11/11 19:44:36;;;;;;;4.00;2.10;;;;;;;3.85;100.00;97551.09;15260815;19;20135;-52
2023/11/11 19:50:02;;;;;;;3.25;2.70;;;;;;;3.87;100.00;97567.78;15258940;19;20025;-51
2023/11/11 19:55:29;;;;;;;3.60;2.20;;;;;;;3.89;100.00;97564.97;15264356;19;20014;-49
2023/11/11 20:00:54;;;;;;;4.03;2.63;;;;;;;3.89;100.00;97568.50;15264090;19;20491;-54
2023/11/11 20:06:18;;;;;;;2.92;2.30;;;;;;;3.89;100.00;97568.50;15262243;19;20014;-53
2023/11/11 20:11:52;;;;;;;4.07;2.47;;;;;;;3.87;100.00;97565.13;15267956;19;20498;-55
2023/11/11 20:17:17;;;;;;;3.33;2.53;;;;;;;3.85;100.00;97565.28;15253471;19;20011;-52
2023/11/11 20:22:42;;;;;;;3.65;1.95;;;;;;;3.81;100.00;97565.69;15265967;19;20018;-53
2023/11/11 20:28:10;;;;;;;3.38;1.80;;;;;;;3.77;100.00;97561.63;15262880;19;20010;-54
2023/11/11 20:33:34;;;;;;;2.97;2.00;;;;;;;3.76;100.00;97568.78;15277945;19;20018;-52
2023/11/11 20:38:59;;;;;;;1.60;1.45;;;;;;;3.74;100.00;97578.75;15269526;19;20097;-51
2023/11/11 20:44:26;;;;;;;2.00;1.50;;;;;;;3.70;100.00;97570.16;15274030;19;20015;-51
2023/11/11 20:49:51;;;;;;;2.30;1.30;;;;;;;3.63;100.00;97563.72;15271140;19;20036;-50
2023/11/11 20:55:19;;;;;;;3.05;1.40;;;;;;;3.61;100.00;97573.66;15285011;19;20036;-54
2023/11/11 21:00:47;;;;;;;1.10;1.00;;;;;;;3.57;100.00;97572.28;15290474;19;20082;-52
2023/11/11 21:06:13;;;;;;;1.77;1.10;;;;;;;3.58;100.00;97573.97;15273475;19;20350;-53
2023/11/11 21:11:38;;;;;;;1.08;1.00;;;;;;;3.60;100.00;97576.47;15280979;19;20014;-53
2023/11/11 21:17:05;;;;;;;1.48;1.20;;;;;;;3.63;100.00;97574.38;15274395;19;20014;-51
2023/11/11 21:22:30;;;;;;;2.28;1.30;;;;;;;3.66;100.00;97575.91;15273323;19;20547;-47
2023/11/11 21:27:54;;;;;;;1.92;1.00;;;;;;;3.71;100.00;97573.69;15275137;19;20019;-54
2023/11/11 21:33:21;;;;;;;3.28;1.50;;;;;;;3.72;100.00;97569.19;15277604;19;20020;-48
2023/11/11 21:38:53;;;;;;;3.97;1.73;;;;;;;3.75;100.00;97571.56;15272620;19;20078;-49
2023/11/11 21:44:24;;;;;;;4.15;1.52;;;;;;;3.72;100.00;97564.72;15257153;19;20014;-46
2023/11/11 21:49:53;;;;;;;1.80;1.45;;;;;;;3.68;100.00;97573.94;15269148;19;20445;-48
2023/11/11 21:55:18;;;;;;;3.10;1.40;;;;;;;3.66;100.00;97571.44;15272051;19;20043;-49
2023/11/11 22:00:44;;;;;;;4.97;1.80;;;;;;;3.63;100.00;97563.72;15275587;19;20010;-49
2023/11/11 22:06:12;;;;;;;2.30;1.38;;;;;;;3.66;100.00;97562.59;15274371;19;20031;-48
2023/11/11 22:11:39;;;;;;;2.33;1.33;;;;;;;3.68;100.00;97569.47;15274611;19;20036;-48
2023/11/11 22:17:03;;;;;;;4.70;1.45;;;;;;;3.73;100.00;97568.19;15269699;19;20007;-51
2023/11/11 22:22:30;;;;;;;3.42;1.40;;;;;;;3.71;100.00;97576.34;15254452;19;21762;-47
2023/11/11 22:28:02;;;;;;;2.50;1.30;;;;;;;3.67;100.00;97570.47;15273537;19;20015;-47
2023/11/11 22:33:28;;;;;;;1.35;1.10;;;;;;;3.67;100.00;97574.91;15272746;19;20025;-48
2023/11/11 22:38:57;;;;;;;1.30;1.20;;;;;;;3.68;100.00;97574.81;15275988;19;20019;-48
2023/11/11 22:44:22;;;;;;;2.67;1.40;;;;;;;3.68;100.00;97574.81;15271620;19;20023;-52
2023/11/11 22:49:47;;;;;;;1.83;1.50;;;;;;;3.64;100.00;97569.91;15270701;19;20386;-50
2023/11/11 22:55:14;;;;;;;2.47;1.50;;;;;;;3.62;100.00;97575.34;15263298;19;20011;-52
2023/11/11 23:00:45;;;;;;;2.65;1.58;;;;;;;3.64;100.00;97568.06;15273421;19;21630;-52
2023/11/11 23:06:10;;;;;;;2.30;1.30;;;;;;;3.72;100.00;97577.16;15276003;19;20078;-51
2023/11/11 23:11:37;;;;;;;1.45;1.20;;;;;;;3.78;100.00;97560.66;15276387;19;20022;-49
2023/11/11 23:17:02;;;;;;;3.17;1.30;;;;;;;3.84;100.00;97555.59;15271608;19;20022;-49
2023/11/11 23:22:27;;;;;;;3.15;1.17;;;;;;;3.82;100.00;97551.41;15271663;19;20679;-49
2023/11/11 23:27:55;;;;;;;3.88;1.45;;;;;;;3.81;100.00;97549.72;15264173;19;20105;-49
2023/11/11 23:33:19;;;;;;;2.25;1.42;;;;;;;3.75;100.00;97544.94;15270602;19;20018;-47
2023/11/11 23:38:44;;;;;;;2.08;1.20;;;;;;;3.77;100.00;97540.31;15270176;19;20010;-49
2023/11/11 23:44:12;;;;;;;2.63;1.60;;;;;;;3.78;100.00;97555.31;15269205;19;20029;-48
2023/11/11 23:49:37;;;;;;;2.50;1.50;;;;;;;3.79;100.00;97551.66;15267476;19;20086;-48
2023/11/11 23:55:01;;;;;;;2.92;1.60;;;;;;;3.82;100.00;97556.72;15266642;19;20035;-47
